Time;durP1;ratioP1;P1;durP2;ratioP2;P2;SDS_P1;SDS_P2;PMS_P1;PMS_P2;Temp;Humidity;BMP_temperature;BMP_pressure;BME280_temperature;BME280_humidity;BME280_pressure;Samples;Min_cycle;Max_cycle;Signal;HPM_P1;HPM_P2
2023/01/08 00:01:56;;;;;;;4.55;2.20;;;;;;;-148.88;96.10;75371.00;5031134;23;20021;-88
2023/01/08 00:04:22;;;;;;;3.80;2.88;;;;;;;-148.88;96.91;75371.00;5020952;28;20029;-87
2023/01/08 00:06:47;;;;;;;5.05;2.83;;;;;;;-148.88;96.54;75373.03;5017994;28;20026;-89
2023/01/08 00:09:12;;;;;;;3.40;2.13;;;;;;;-148.88;96.57;75375.06;5020021;28;20023;-90
2023/01/08 00:11:38;;;;;;;5.07;2.40;;;;;;;-148.88;96.71;75371.00;5019029;28;20042;-89
2023/01/08 00:14:15;;;;;;;4.50;2.90;;;;;;;-148.88;96.40;75371.00;5049035;23;20046;-88
2023/01/08 00:16:54;;;;;;;4.13;2.13;;;;;;;-148.88;96.63;75371.00;5017834;28;20133;-87
2023/01/08 00:22:16;;;;;;;4.55;2.30;;;;;;;-148.88;96.79;75364.91;5035947;28;20040;-88
2023/01/08 00:24:44;;;;;;;4.03;1.70;;;;;;;-148.88;96.98;75356.78;5014533;28;20022;-87
2023/01/08 00:27:10;;;;;;;3.45;1.70;;;;;;;-148.88;95.94;75356.78;4997766;28;20387;-87
2023/01/08 00:30:15;;;;;;;4.43;2.78;;;;;;;-148.88;96.54;75352.72;4998430;28;20068;-88
2023/01/08 00:33:07;;;;;;;3.47;1.95;;;;;;;-148.88;96.69;75354.75;4997882;28;20112;-87
2023/01/08 00:35:38;;;;;;;4.95;1.90;;;;;;;-148.88;96.59;75350.69;4997443;28;20479;-87
2023/01/08 00:38:04;;;;;;;3.88;2.03;;;;;;;-148.88;95.81;75336.47;4999132;28;20025;-88
2023/01/08 00:40:37;;;;;;;3.60;1.92;;;;;;;-148.88;95.81;75338.50;4998275;28;20125;-88
2023/01/08 00:43:24;;;;;;;3.77;2.10;;;;;;;-148.88;96.20;75334.44;4998964;28;20045;-88
2023/01/08 00:46:14;;;;;;;3.70;2.08;;;;;;;-148.88;96.52;75334.44;5014768;28;20267;-88
2023/01/08 00:48:46;;;;;;;4.88;2.00;;;;;;;-148.88;96.45;75328.34;4997551;28;20026;-87
2023/01/08 00:51:14;;;;;;;5.40;3.00;;;;;;;-148.88;96.20;75324.28;4998121;28;20029;-88
2023/01/08 00:53:39;;;;;;;4.13;2.20;;;;;;;-148.88;96.66;75322.25;4997093;28;20034;-88
2023/01/08 00:56:09;;;;;;;5.25;2.17;;;;;;;-148.88;96.56;75326.31;4998242;28;20116;-88
2023/01/08 00:59:14;;;;;;;3.97;3.00;;;;;;;-148.88;96.11;75314.13;4997933;28;20038;-88
2023/01/08 01:01:47;;;;;;;3.75;1.80;;;;;;;-148.88;96.60;75306.00;4979706;28;20072;-88
2023/01/08 01:04:16;;;;;;;3.97;2.10;;;;;;;-148.88;95.66;75301.94;5008315;23;20042;-79
2023/01/08 01:06:41;;;;;;;4.93;2.60;;;;;;;-148.88;95.93;75301.94;5016208;28;20026;-79
2023/01/08 01:09:07;;;;;;;3.80;2.60;;;;;;;-148.88;95.84;75297.88;5017891;28;20022;-78
2023/01/08 01:11:33;;;;;;;4.40;2.60;;;;;;;-148.88;96.36;75297.88;5019490;28;20108;-79
2023/01/08 01:13:58;;;;;;;3.30;1.90;;;;;;;-148.88;96.25;75297.88;5018178;28;20029;-78
2023/01/08 01:16:23;;;;;;;4.47;2.72;;;;;;;-148.88;96.20;75293.81;5018583;28;20033;-78
2023/01/08 01:18:51;;;;;;;6.05;2.35;;;;;;;-148.88;96.25;75297.88;5016009;28;20104;-79
2023/01/08 01:21:25;;;;;;;4.72;3.05;;;;;;;-148.88;96.76;75287.72;5017985;28;20030;-78
2023/01/08 01:23:53;;;;;;;3.92;2.20;;;;;;;-148.88;97.16;75295.84;5017069;28;20088;-79
2023/01/08 01:26:20;;;;;;;3.28;2.85;;;;;;;-148.88;96.86;75297.88;5016414;28;20053;-78
2023/01/08 01:28:47;;;;;;;3.83;2.95;;;;;;;-148.88;96.77;75289.75;5017698;28;20018;-78
2023/01/08 01:31:12;;;;;;;3.53;2.03;;;;;;;-148.88;97.66;75297.88;5018415;28;20076;-79
2023/01/08 01:33:39;;;;;;;7.05;2.20;;;;;;;-148.88;97.32;75303.97;5016234;28;20018;-79
2023/01/08 01:36:04;;;;;;;4.03;2.60;;;;;;;-148.88;98.21;75310.06;5016724;28;20029;-79
2023/01/08 01:38:30;;;;;;;3.97;2.85;;;;;;;-148.88;98.31;75303.97;5017277;28;20390;-79
2023/01/08 01:40:55;;;;;;;3.92;2.90;;;;;;;-148.88;98.24;75306.00;5018346;28;20046;-79
2023/01/08 01:43:35;;;;;;;4.82;2.90;;;;;;;-148.88;98.46;75306.00;5017607;28;20022;-78
2023/01/08 01:46:03;;;;;;;4.32;2.78;;;;;;;-148.88;99.39;75303.97;5016641;28;20033;-78
2023/01/08 01:48:28;;;;;;;4.65;2.17;;;;;;;-148.88;98.81;75306.00;5017427;28;20402;-78
2023/01/08 01:50:54;;;;;;;4.80;3.08;;;;;;;-148.88;99.38;75306.00;5018409;28;20028;-79
2023/01/08 01:53:27;;;;;;;3.80;2.30;;;;;;;-148.88;99.75;75310.06;5017344;28;20041;-79
2023/01/08 01:55:53;;;;;;;3.63;2.70;;;;;;;-148.88;99.33;75306.00;5016534;28;20110;-79
2023/01/08 01:58:22;;;;;;;2.92;1.63;;;;;;;-148.88;99.16;75301.94;5016582;28;20053;-79
2023/01/08 02:00:48;;;;;;;3.78;1.88;;;;;;;-148.88;99.28;75308.03;5018187;28;20037;-79
2023/01/08 02:03:15;;;;;;;4.70;2.60;;;;;;;-148.88;99.47;75310.06;5016875;28;20030;-79
2023/01/08 02:05:49;;;;;;;5.18;2.83;;;;;;;-148.88;99.00;75297.88;5018341;28;20486;-79
2023/01/08 02:08:27;;;;;;;3.80;1.95;;;;;;;-148.88;98.97;75301.94;5017079;28;20532;-79
2023/01/08 02:11:44;;;;;;;4.28;3.00;;;;;;;-148.88;98.60;75301.94;5017516;28;20112;-78
2023/01/08 02:14:14;;;;;;;4.53;2.65;;;;;;;-148.88;98.81;75316.16;4994033;28;20033;-78
2023/01/08 02:16:54;;;;;;;3.75;2.25;;;;;;;-148.88;98.79;75301.94;5017960;28;20072;-79
2023/01/08 02:19:37;;;;;;;3.05;1.83;;;;;;;-148.88;99.24;75301.94;5018257;28;20097;-79
2023/01/08 02:22:14;;;;;;;4.05;2.47;;;;;;;-148.88;99.42;75297.88;5016885;28;20116;-78
2023/01/08 02:24:55;;;;;;;3.10;1.75;;;;;;;-148.88;99.14;75303.97;5017799;28;20501;-77
2023/01/08 02:27:24;;;;;;;3.22;1.65;;;;;;;-148.88;99.30;75297.88;5000710;28;20030;-78
2023/01/08 02:29:52;;;;;;;2.97;2.58;;;;;;;-148.88;99.10;75289.75;5020124;28;20050;-79
2023/01/08 02:32:17;;;;;;;3.78;2.42;;;;;;;-148.88;98.97;75281.66;5022483;28;20433;-78
2023/01/08 02:34:43;;;;;;;2.95;1.60;;;;;;;-148.88;98.97;75281.66;5002174;28;20041;-78
2023/01/08 02:37:08;;;;;;;3.10;1.67;;;;;;;-148.88;98.98;75277.59;5017579;28;20049;-79
2023/01/08 02:39:58;;;;;;;3.75;2.15;;;;;;;-148.88;99.33;75285.69;5016314;28;20156;-78
2023/01/08 02:42:38;;;;;;;3.10;2.40;;;;;;;-148.88;98.93;75277.59;5020926;28;20025;-78
2023/01/08 02:45:37;;;;;;;3.22;1.83;;;;;;;-148.88;99.21;75281.66;5002863;28;20018;-78
2023/01/08 02:48:09;;;;;;;3.55;1.55;;;;;;;-148.88;99.77;75277.59;5003027;28;20018;-78
2023/01/08 02:50:37;;;;;;;4.68;1.83;;;;;;;-148.88;99.13;75275.56;5021290;28;20045;-79
2023/01/08 02:53:08;;;;;;;3.50;2.22;;;;;;;-148.88;99.52;75273.53;5003122;28;20029;-79
2023/01/08 02:55:37;;;;;;;3.47;2.40;;;;;;;-148.88;99.11;75277.59;5003762;28;20111;-78
2023/01/08 02:58:03;;;;;;;3.35;1.73;;;;;;;-148.88;98.94;75265.41;5004433;28;20029;-77
2023/01/08 03:00:31;;;;;;;4.28;1.58;;;;;;;-148.88;99.21;75265.41;5004097;28;20025;-77
2023/01/08 03:03:17;;;;;;;2.55;1.70;;;;;;;-148.88;99.21;75267.44;5021342;28;20525;-79
2023/01/08 03:05:47;;;;;;;3.33;1.85;;;;;;;-148.88;99.42;75265.41;5021477;28;20418;-79
2023/01/08 03:08:12;;;;;;;3.28;1.92;;;;;;;-148.88;99.11;75269.47;5003580;28;20037;-79
2023/01/08 03:10:44;;;;;;;3.22;2.40;;;;;;;-148.88;99.48;75265.41;5021447;28;20466;-79
2023/01/08 03:13:20;;;;;;;3.53;2.20;;;;;;;-148.88;99.54;75269.47;5020457;28;20022;-79
2023/01/08 03:15:51;;;;;;;3.28;2.25;;;;;;;-148.88;99.38;75263.38;5020665;28;20096;-79
2023/01/08 03:18:23;;;;;;;3.50;1.85;;;;;;;-148.88;99.69;75265.41;5020627;28;20029;-78
2023/01/08 03:20:49;;;;;;;3.10;2.15;;;;;;;-148.88;99.93;75263.38;5002674;28;20135;-79
2023/01/08 03:23:18;;;;;;;2.97;2.10;;;;;;;-148.88;99.25;75257.28;5020234;28;20105;-79
2023/01/08 03:25:46;;;;;;;2.60;1.40;;;;;;;-148.88;99.18;75257.28;5020133;28;20088;-79
2023/01/08 03:28:17;;;;;;;2.80;1.95;;;;;;;-148.88;99.65;75253.22;5020016;28;20088;-79
2023/01/08 03:30:45;;;;;;;3.30;1.52;;;;;;;-148.88;99.29;75253.22;5021373;28;20037;-79
2023/01/08 03:33:12;;;;;;;3.78;2.00;;;;;;;-148.88;99.61;75257.28;5005227;28;20053;-79
2023/01/08 03:35:40;;;;;;;3.33;1.60;;;;;;;-148.88;100.00;75257.28;5022028;28;20022;-78
2023/01/08 03:38:13;;;;;;;2.88;1.50;;;;;;;-148.88;100.00;75257.28;5021839;28;20045;-79
2023/01/08 03:40:43;;;;;;;3.00;2.20;;;;;;;-148.88;100.00;75259.31;5005129;28;20025;-79
2023/01/08 03:43:09;;;;;;;3.47;1.90;;;;;;;-148.88;100.00;75267.44;5004650;28;20033;-79
2023/01/08 03:45:37;;;;;;;5.00;1.65;;;;;;;-148.88;100.00;75261.34;5005562;28;20026;-79
2023/01/08 03:48:04;;;;;;;3.28;2.00;;;;;;;-148.88;100.00;75257.28;5023837;28;20093;-79
2023/01/08 03:50:31;;;;;;;3.22;2.00;;;;;;;-148.88;100.00;75259.31;5005598;28;20049;-79
2023/01/08 03:52:56;;;;;;;3.80;1.17;;;;;;;-148.88;100.00;75253.22;5003815;28;20030;-79
2023/01/08 03:55:22;;;;;;;3.75;2.33;;;;;;;-148.88;100.00;75251.19;5004403;28;20021;-79
2023/01/08 03:57:47;;;;;;;4.18;2.50;;;;;;;-148.88;100.00;75261.34;5004623;28;20018;-79
2023/01/08 04:00:15;;;;;;;4.30;1.75;;;;;;;-148.88;100.00;75243.06;5005240;28;20383;-79
2023/01/08 04:02:41;;;;;;;2.63;1.50;;;;;;;-148.88;100.00;75245.09;5022580;28;20022;-79
2023/01/08 04:05:07;;;;;;;4.75;2.13;;;;;;;-148.88;100.00;75253.22;5022003;28;20037;-79
2023/01/08 04:07:32;;;;;;;4.60;2.13;;;;;;;-148.88;100.00;75249.16;5021857;28;20026;-78
2023/01/08 04:09:58;;;;;;;2.70;1.30;;;;;;;-148.88;100.00;75251.19;5022453;28;20086;-79
2023/01/08 04:12:23;;;;;;;3.38;2.10;;;;;;;-148.88;100.00;75253.22;5003629;28;20029;-78
2023/01/08 04:14:48;;;;;;;3.40;2.10;;;;;;;-148.88;100.00;75245.09;5021566;28;20478;-79
2023/01/08 04:17:14;;;;;;;3.83;2.40;;;;;;;-148.88;100.00;75245.09;5021626;28;20029;-79
2023/01/08 04:19:39;;;;;;;5.45;1.85;;;;;;;-148.88;100.00;75241.03;5021771;28;20037;-79
2023/01/08 04:22:05;;;;;;;5.07;2.10;;;;;;;-148.88;100.00;75241.03;5005168;28;20025;-79
2023/01/08 04:24:30;;;;;;;4.15;2.00;;;;;;;-148.88;100.00;75245.09;5004853;28;20056;-79
2023/01/08 04:26:55;;;;;;;4.30;1.85;;;;;;;-148.88;100.00;75245.09;5022178;28;20029;-79
2023/01/08 04:29:20;;;;;;;4.05;2.58;;;;;;;-148.88;100.00;75249.16;5022573;28;20491;-79
2023/01/08 04:31:46;;;;;;;4.25;1.77;;;;;;;-148.88;100.00;75247.13;5004138;28;20092;-79
2023/01/08 04:34:11;;;;;;;4.13;2.58;;;;;;;-148.88;100.00;75245.09;5021118;28;20088;-79
2023/01/08 04:36:36;;;;;;;3.15;1.85;;;;;;;-148.88;100.00;75243.06;5020844;28;20065;-79
2023/01/08 04:39:02;;;;;;;4.22;1.90;;;;;;;-148.88;100.00;75243.06;5003749;28;20061;-79
2023/01/08 04:41:30;;;;;;;3.95;2.03;;;;;;;-148.88;100.00;75241.03;5020616;28;20037;-79
2023/01/08 04:43:56;;;;;;;4.45;2.70;;;;;;;-148.88;100.00;75228.84;5021138;28;20482;-79
2023/01/08 04:46:21;;;;;;;4.15;1.70;;;;;;;-148.88;100.00;75241.03;5021450;28;20041;-79
2023/01/08 04:48:46;;;;;;;2.40;1.25;;;;;;;-148.88;100.00;75228.84;5003457;28;20026;-79
2023/01/08 04:51:12;;;;;;;3.05;2.08;;;;;;;-148.88;100.00;75230.88;5004015;28;20026;-78
2023/01/08 04:53:39;;;;;;;3.63;2.25;;;;;;;-148.88;100.00;75241.03;5004025;28;20034;-78
2023/01/08 04:56:09;;;;;;;3.80;1.75;;;;;;;-148.88;100.00;75232.91;5021864;28;20026;-77
2023/01/08 04:58:35;;;;;;;4.05;1.83;;;;;;;-148.88;100.00;75220.72;5022572;28;20121;-78
2023/01/08 05:01:08;;;;;;;4.47;1.40;;;;;;;-148.88;100.00;75228.84;5021827;28;20034;-78
2023/01/08 05:03:33;;;;;;;3.17;1.50;;;;;;;-148.88;100.00;75220.72;5003671;28;20470;-78
2023/01/08 05:05:59;;;;;;;3.78;1.90;;;;;;;-148.88;100.00;75218.69;5021791;28;20052;-78
2023/01/08 05:08:25;;;;;;;2.67;1.63;;;;;;;-148.88;100.00;75216.66;5021437;28;20021;-78
2023/01/08 05:10:50;;;;;;;2.88;1.30;;;;;;;-148.88;100.00;75216.66;5003195;28;20405;-78
2023/01/08 05:13:15;;;;;;;2.85;1.98;;;;;;;-148.88;100.00;75210.56;5020611;28;20025;-78
2023/01/08 05:15:40;;;;;;;3.05;2.00;;;;;;;-148.88;100.00;75208.53;5003362;28;20030;-78
2023/01/08 05:18:06;;;;;;;4.38;2.13;;;;;;;-148.88;100.00;75208.53;5021617;28;20022;-79
2023/01/08 05:20:32;;;;;;;2.03;1.15;;;;;;;-148.88;100.00;75202.44;5020910;28;20026;-79
2023/01/08 05:22:58;;;;;;;3.17;1.40;;;;;;;-148.88;100.00;75206.50;5020224;28;20083;-78
2023/01/08 05:25:24;;;;;;;2.90;1.70;;;;;;;-148.88;100.00;75202.44;5001976;28;20057;-78
2023/01/08 05:27:49;;;;;;;2.75;1.30;;;;;;;-148.88;100.00;75212.59;5001523;28;20505;-76
2023/01/08 05:30:15;;;;;;;3.33;2.20;;;;;;;-148.88;100.00;75208.53;5002451;28;20025;-78
2023/01/08 05:32:40;;;;;;;3.22;1.42;;;;;;;-148.88;100.00;75202.44;5019379;28;20030;-78
2023/01/08 05:35:06;;;;;;;3.30;1.98;;;;;;;-148.88;100.00;75214.63;5019413;28;20060;-78
2023/01/08 05:37:35;;;;;;;2.95;1.92;;;;;;;-148.88;100.00;75204.47;5001264;28;20490;-78
2023/01/08 05:40:00;;;;;;;2.85;1.58;;;;;;;-148.88;100.00;75204.47;5018443;28;20482;-78
2023/01/08 05:42:26;;;;;;;4.13;1.77;;;;;;;-148.88;100.00;75210.56;5017991;28;20048;-78
2023/01/08 05:44:51;;;;;;;4.15;1.63;;;;;;;-148.88;100.00;75204.47;5017547;28;20037;-77
2023/01/08 05:47:16;;;;;;;4.30;2.22;;;;;;;-148.88;100.00;75212.59;5017567;28;20559;-78
2023/01/08 05:49:41;;;;;;;2.53;1.30;;;;;;;-148.88;100.00;75204.47;5017476;28;20026;-77
2023/01/08 05:52:07;;;;;;;3.20;1.63;;;;;;;-148.88;100.00;75204.47;4999668;28;20036;-78
2023/01/08 05:54:32;;;;;;;2.63;1.40;;;;;;;-148.88;100.00;75204.47;5016884;28;20037;-78
2023/01/08 05:57:00;;;;;;;2.65;1.50;;;;;;;-148.88;100.00;75202.44;5017454;28;20108;-78
2023/01/08 05:59:25;;;;;;;4.57;1.50;;;;;;;-148.88;100.00;75196.34;4999605;28;20381;-78
2023/01/08 06:01:50;;;;;;;4.32;2.38;;;;;;;-148.88;100.00;75200.41;4999219;28;20025;-78
2023/01/08 06:04:15;;;;;;;2.40;1.55;;;;;;;-148.88;100.00;75204.47;5017665;28;20033;-78
2023/01/08 06:06:41;;;;;;;3.47;1.33;;;;;;;-148.88;100.00;75202.44;5019250;28;20052;-78
2023/01/08 06:09:06;;;;;;;3.15;1.60;;;;;;;-148.88;100.00;75208.53;5018947;28;20522;-78
2023/01/08 06:11:31;;;;;;;2.67;1.40;;;;;;;-148.88;100.00;75208.53;5001917;28;20026;-78
2023/01/08 06:13:57;;;;;;;3.95;1.60;;;;;;;-148.88;100.00;75210.56;5018054;28;20084;-77
2023/01/08 06:16:22;;;;;;;3.35;2.20;;;;;;;-148.88;100.00;75216.66;5017675;28;20026;-78
2023/01/08 06:18:47;;;;;;;4.35;1.70;;;;;;;-148.88;100.00;75224.78;5017737;28;20124;-78
2023/01/08 06:21:13;;;;;;;4.93;1.65;;;;;;;-148.88;100.00;75216.66;5017620;28;20113;-78
2023/01/08 06:23:39;;;;;;;3.30;2.00;;;;;;;-148.88;100.00;75222.75;4999614;28;20064;-78
2023/01/08 06:26:05;;;;;;;4.15;2.15;;;;;;;-148.88;100.00;75228.84;5017072;28;20040;-78
2023/01/08 06:28:31;;;;;;;4.03;2.13;;;;;;;-148.88;100.00;75222.75;5017036;28;20049;-78
2023/01/08 06:30:58;;;;;;;2.45;1.20;;;;;;;-148.88;100.00;75222.75;5016950;28;20053;-78
2023/01/08 06:33:24;;;;;;;2.70;1.48;;;;;;;-148.88;100.00;75218.69;5016636;28;20030;-78
2023/01/08 06:35:49;;;;;;;3.30;1.65;;;;;;;-148.88;100.00;75216.66;5016740;28;20079;-78
2023/01/08 06:38:17;;;;;;;3.22;1.33;;;;;;;-148.88;100.00;75220.72;5016736;28;20029;-78
2023/01/08 06:40:43;;;;;;;3.72;2.10;;;;;;;-148.88;100.00;75218.69;5017074;28;20396;-78
2023/01/08 06:43:08;;;;;;;2.30;1.40;;;;;;;-148.88;100.00;75220.72;5001754;28;20022;-78
2023/01/08 06:45:33;;;;;;;3.13;1.30;;;;;;;-148.88;100.00;75216.66;5019427;28;20057;-78
2023/01/08 06:48:00;;;;;;;5.05;1.60;;;;;;;-148.88;100.00;75220.72;5019168;28;20041;-78
2023/01/08 06:50:26;;;;;;;2.33;1.35;;;;;;;-148.88;100.00;75226.81;4999549;28;20022;-78
2023/01/08 06:52:53;;;;;;;2.17;1.15;;;;;;;-148.88;100.00;75216.66;5014492;28;20032;-79
2023/01/08 06:55:19;;;;;;;3.78;1.30;;;;;;;-148.88;100.00;75218.69;5013001;28;20026;-77
2023/01/08 06:57:44;;;;;;;2.60;1.13;;;;;;;-148.88;100.00;75214.63;5013251;28;20029;-78
2023/01/08 07:00:10;;;;;;;2.42;1.13;;;;;;;-148.88;100.00;75222.75;5013543;28;20034;-77
2023/01/08 07:02:35;;;;;;;2.45;1.55;;;;;;;-148.88;100.00;75226.81;5013444;28;20109;-77
2023/01/08 07:05:01;;;;;;;1.95;0.98;;;;;;;-148.88;100.00;75224.78;5013336;28;20049;-78
2023/01/08 07:07:26;;;;;;;2.47;1.50;;;;;;;-148.88;100.00;75224.78;4995923;28;20064;-77
2023/01/08 07:09:52;;;;;;;2.28;1.10;;;;;;;-148.88;100.00;75220.72;4996011;28;20033;-77
2023/01/08 07:12:17;;;;;;;2.30;1.20;;;;;;;-148.88;100.00;75220.72;5013431;28;20022;-78
2023/01/08 07:14:42;;;;;;;4.40;1.23;;;;;;;-148.88;100.00;75224.78;5013395;28;20042;-77
2023/01/08 07:17:07;;;;;;;2.67;1.10;;;;;;;-148.88;100.00;75228.84;5012464;28;20022;-76
2023/01/08 07:19:33;;;;;;;2.60;1.60;;;;;;;-148.88;100.00;75241.03;5013092;28;20470;-77
2023/01/08 07:21:58;;;;;;;2.47;1.17;;;;;;;-148.88;100.00;75243.06;5012781;28;20030;-77
2023/01/08 07:24:23;;;;;;;2.45;1.20;;;;;;;-148.88;100.00;75241.03;5012942;28;20135;-77
2023/01/08 07:26:49;;;;;;;5.05;1.13;;;;;;;-148.88;100.00;75245.09;5014837;28;20026;-77
2023/01/08 07:29:14;;;;;;;2.85;1.00;;;;;;;-148.88;100.00;75241.03;5015963;28;20393;-76
2023/01/08 07:31:39;;;;;;;2.42;1.10;;;;;;;-148.88;100.00;75241.03;5015747;28;20093;-76
2023/01/08 07:34:05;;;;;;;2.75;1.10;;;;;;;-148.88;100.00;75241.03;5015820;28;20486;-76
2023/01/08 07:36:30;;;;;;;2.50;1.48;;;;;;;-148.88;100.00;75245.09;5016402;28;20444;-77
2023/01/08 07:38:55;;;;;;;1.75;0.85;;;;;;;-148.88;100.00;75245.09;4998036;28;20029;-76
2023/01/08 07:41:21;;;;;;;2.33;1.10;;;;;;;-148.88;100.00;75245.09;4998359;28;20469;-78
2023/01/08 07:43:47;;;;;;;2.55;1.52;;;;;;;-148.88;100.00;75228.84;4998459;28;20028;-77
2023/01/08 07:46:12;;;;;;;2.08;1.17;;;;;;;-148.88;100.00;75241.03;4998080;28;20033;-77
2023/01/08 07:48:37;;;;;;;1.90;0.98;;;;;;;-148.88;100.00;75236.97;5015617;28;20018;-76
2023/01/08 07:51:04;;;;;;;3.40;1.77;;;;;;;-148.88;100.00;75232.91;4998046;28;20030;-77
2023/01/08 07:53:30;;;;;;;2.90;1.60;;;;;;;-148.88;100.00;75241.03;5015364;28;20072;-83
2023/01/08 07:56:00;;;;;;;1.63;1.00;;;;;;;-148.88;100.00;75236.97;4998279;28;20022;-77
2023/01/08 07:58:26;;;;;;;2.33;1.40;;;;;;;-148.88;100.00;75228.84;5015570;28;20461;-77
2023/01/08 08:00:52;;;;;;;1.60;0.93;;;;;;;-148.88;100.00;75224.78;4998212;28;20418;-77
2023/01/08 08:03:17;;;;;;;1.92;1.00;;;;;;;-148.88;100.00;75230.88;5015279;28;20065;-77
2023/01/08 08:05:42;;;;;;;2.15;0.80;;;;;;;-148.88;100.00;75220.72;5012695;28;20549;-77
2023/01/08 08:08:10;;;;;;;1.38;0.73;;;;;;;-148.88;100.00;75218.69;5016061;28;20018;-77
2023/01/08 08:10:35;;;;;;;1.85;1.10;;;;;;;-148.88;100.00;75220.72;5013886;28;20061;-76
2023/01/08 08:13:02;;;;;;;2.95;0.93;;;;;;;-148.88;100.00;75220.72;5014906;28;20026;-76
2023/01/08 08:15:27;;;;;;;2.10;0.90;;;;;;;-148.88;100.00;75228.84;5013846;28;20072;-77
2023/01/08 08:17:52;;;;;;;2.60;1.50;;;;;;;-148.88;100.00;75228.84;5013774;28;20022;-77
2023/01/08 08:20:18;;;;;;;8.30;3.47;;;;;;;-148.88;100.00;75220.72;5014999;28;20475;-76
2023/01/08 08:22:43;;;;;;;7.45;3.47;;;;;;;-148.88;100.00;75218.69;5013971;28;20025;-76
2023/01/08 08:25:09;;;;;;;4.43;2.00;;;;;;;-148.88;100.00;75216.66;5013603;28;20037;-77
2023/01/08 08:27:35;;;;;;;4.68;2.28;;;;;;;-148.88;100.00;75208.53;5013601;28;20014;-77
2023/01/08 08:30:00;;;;;;;3.70;2.22;;;;;;;-148.88;100.00;75204.47;5014889;28;20029;-76
2023/01/08 08:32:25;;;;;;;3.42;1.80;;;;;;;-148.88;100.00;75208.53;5014641;28;20026;-76
2023/01/08 08:34:50;;;;;;;2.63;1.20;;;;;;;-148.88;100.00;75204.47;5014787;28;20026;-77
2023/01/08 08:37:16;;;;;;;2.90;1.90;;;;;;;-148.88;100.00;75200.41;5014617;28;20068;-77
2023/01/08 08:39:41;;;;;;;2.22;1.13;;;;;;;-148.88;100.00;75196.34;5014266;28;20026;-77
2023/01/08 08:42:06;;;;;;;2.08;1.02;;;;;;;-148.88;100.00;75194.31;5013094;28;20033;-77
2023/01/08 08:44:31;;;;;;;2.47;1.38;;;;;;;-148.88;100.00;75190.25;5014534;28;20026;-77
2023/01/08 08:46:57;;;;;;;2.60;1.60;;;;;;;-148.88;100.00;75184.16;5014566;28;20038;-77
2023/01/08 08:49:22;;;;;;;2.47;1.10;;;;;;;-148.88;100.00;75188.22;5014770;28;20533;-77
2023/01/08 08:51:47;;;;;;;1.88;0.80;;;;;;;-148.88;100.00;75204.47;5014377;28;20061;-77
2023/01/08 08:54:13;;;;;;;2.28;1.42;;;;;;;-148.88;100.00;75208.53;5013044;28;20036;-76
2023/01/08 08:56:38;;;;;;;2.10;1.13;;;;;;;-148.88;100.00;75218.69;5013110;28;20032;-77
2023/01/08 08:59:03;;;;;;;1.70;0.40;;;;;;;-148.88;98.06;75322.25;5014566;28;20496;-76
2023/01/08 09:01:29;;;;;;;2.95;0.80;;;;;;;-148.88;100.00;75364.91;5014320;28;20025;-77
2023/01/08 09:03:54;;;;;;;0.88;0.40;;;;;;;-148.88;100.00;75387.25;5014089;28;20465;-77
2023/01/08 09:06:19;;;;;;;1.10;0.60;;;;;;;-148.88;100.00;75403.50;5014763;28;20022;-76
2023/01/08 09:08:44;;;;;;;2.50;0.93;;;;;;;-148.88;100.00;75409.59;5014170;28;20543;-76
2023/01/08 09:11:10;;;;;;;2.50;1.10;;;;;;;-148.88;100.00;75431.94;5014664;28;20033;-77
2023/01/08 09:13:36;;;;;;;2.10;0.73;;;;;;;-148.88;100.00;75413.66;5014222;28;20510;-76
2023/01/08 09:16:02;;;;;;;1.55;0.70;;;;;;;-148.88;100.00;75423.81;5014481;28;20037;-77
2023/01/08 09:18:27;;;;;;;2.80;1.50;;;;;;;-148.88;100.00;75438.03;5014051;28;20037;-77
2023/01/08 09:20:52;;;;;;;3.88;1.40;;;;;;;-148.88;100.00;75431.94;5014926;28;20403;-78
2023/01/08 09:23:18;;;;;;;4.57;0.80;;;;;;;-148.88;100.00;75440.06;4998664;28;20108;-78
2023/01/08 09:25:43;;;;;;;2.85;0.82;;;;;;;-148.88;100.00;75419.75;5016216;28;20115;-78
2023/01/08 09:28:11;;;;;;;3.35;0.90;;;;;;;-148.88;100.00;75411.63;5020002;28;20032;-79
2023/01/08 09:30:37;;;;;;;1.70;0.73;;;;;;;-148.88;100.00;75391.31;5000567;28;20026;-80
2023/01/08 09:33:03;;;;;;;3.85;1.48;;;;;;;-148.88;100.00;75389.28;5017843;28;20034;-79
2023/01/08 09:35:29;;;;;;;4.75;1.67;;;;;;;-148.88;100.00;75385.22;5020149;28;20026;-80
2023/01/08 09:37:55;;;;;;;3.97;1.48;;;;;;;-148.88;100.00;75377.09;5018474;28;20021;-80
2023/01/08 09:40:43;;;;;;;5.63;1.80;;;;;;;-148.88;100.00;75373.03;5002733;28;20405;-79
2023/01/08 09:43:16;;;;;;;4.35;1.90;;;;;;;-148.88;100.00;75364.91;5014487;28;20109;-77
2023/01/08 09:45:44;;;;;;;4.75;1.95;;;;;;;-148.88;100.00;75383.19;5016388;28;20068;-79
2023/01/08 09:48:15;;;;;;;2.58;1.50;;;;;;;-148.88;100.00;75375.06;5017747;28;20022;-78
2023/01/08 09:50:40;;;;;;;2.30;1.00;;;;;;;-148.88;100.00;75375.06;5017992;28;20026;-78
2023/01/08 09:53:12;;;;;;;1.92;0.88;;;;;;;-148.88;100.00;75371.00;5017012;28;20056;-78
2023/01/08 09:55:38;;;;;;;3.78;1.00;;;;;;;-148.88;100.00;75358.81;5017180;28;20521;-78
2023/01/08 09:58:12;;;;;;;9.38;5.50;;;;;;;-148.88;100.00;75358.81;5014969;28;20586;-76
2023/01/08 10:00:37;;;;;;;6.20;4.00;;;;;;;-148.88;100.00;75350.69;4986075;28;20032;-78
2023/01/08 10:03:02;;;;;;;4.05;2.45;;;;;;;-148.88;100.00;75350.69;5015740;28;20034;-78
2023/01/08 10:05:29;;;;;;;3.47;1.25;;;;;;;-148.88;100.00;75354.75;5015305;28;20072;-77
2023/01/08 10:07:54;;;;;;;2.25;1.35;;;;;;;-148.88;100.00;75344.59;5009748;28;20014;-78
2023/01/08 10:10:24;;;;;;;3.33;1.00;;;;;;;-148.88;100.00;75338.50;4996793;28;20030;-78
2023/01/08 10:12:50;;;;;;;2.50;0.80;;;;;;;-148.88;100.00;75322.25;4996824;28;20026;-77
2023/01/08 10:15:18;;;;;;;1.88;0.70;;;;;;;-148.88;100.00;75306.00;4978989;28;20029;-78
2023/01/08 10:18:04;;;;;;;3.17;1.10;;;;;;;-148.88;100.00;75289.75;4996067;28;20077;-78
2023/01/08 10:20:31;;;;;;;3.70;0.70;;;;;;;-148.88;100.00;75269.47;4996544;28;20402;-77
2023/01/08 10:23:08;;;;;;;3.25;0.88;;;;;;;-148.88;100.00;75259.31;4979604;28;20019;-77
2023/01/08 10:25:56;;;;;;;1.70;0.77;;;;;;;-148.88;100.00;75230.88;4996490;28;20094;-78
2023/01/08 10:28:36;;;;;;;1.85;0.88;;;;;;;-148.88;100.00;75214.63;4977968;28;20018;-78
2023/01/08 10:31:10;;;;;;;0.85;0.50;;;;;;;-148.88;100.00;75190.25;4994988;28;20034;-78
2023/01/08 10:33:53;;;;;;;2.15;0.70;;;;;;;-148.88;100.00;75194.31;4995215;28;20029;-77
2023/01/08 10:36:23;;;;;;;1.98;0.60;;;;;;;-148.88;100.00;75176.03;4995171;28;20522;-78
2023/01/08 10:38:59;;;;;;;2.67;0.90;;;;;;;-148.88;100.00;75163.84;4976692;28;20403;-77
2023/01/08 10:41:25;;;;;;;4.63;1.10;;;;;;;-148.88;99.07;75135.41;4994414;28;20062;-77
2023/01/08 10:43:55;;;;;;;2.92;0.80;;;;;;;-148.88;99.47;75135.41;4994623;28;20077;-77
2023/01/08 10:46:29;;;;;;;3.45;1.00;;;;;;;-148.88;98.25;75109.00;4994691;28;20518;-78
2023/01/08 10:48:59;;;;;;;3.90;1.00;;;;;;;-148.88;97.84;75088.72;4977149;28;20031;-78
2023/01/08 10:51:27;;;;;;;2.45;1.00;;;;;;;-148.88;96.20;75080.59;4994927;28;20034;-79
2023/01/08 10:53:54;;;;;;;3.17;1.05;;;;;;;-148.88;94.13;75052.16;4995580;28;20172;-77
2023/01/08 10:56:23;;;;;;;4.15;1.05;;;;;;;-148.88;89.09;75042.00;4995550;28;20030;-77
2023/01/08 10:58:50;;;;;;;2.58;0.80;;;;;;;-148.88;86.54;75054.19;4996619;28;20027;-78
2023/01/08 11:01:17;;;;;;;4.35;1.08;;;;;;;-148.88;85.93;75019.66;5000116;28;20122;-78
2023/01/08 11:03:48;;;;;;;6.65;1.52;;;;;;;-148.88;83.28;75025.75;5005262;28;20077;-78
2023/01/08 11:06:21;;;;;;;6.63;0.70;;;;;;;-148.88;83.72;75009.50;4980945;28;20507;-78
2023/01/08 11:08:51;;;;;;;6.55;0.77;;;;;;;-148.88;82.89;75001.38;4998064;28;20483;-78
2023/01/08 11:11:17;;;;;;;3.42;1.05;;;;;;;-148.88;84.29;74985.13;4997944;28;20505;-78
2023/01/08 11:13:58;;;;;;;3.63;1.10;;;;;;;-148.88;83.89;74960.75;4997668;28;20116;-78
2023/01/08 11:16:34;;;;;;;5.78;1.27;;;;;;;-148.88;82.84;74956.69;4981015;28;20025;-77
2023/01/08 11:18:59;;;;;;;5.28;1.30;;;;;;;-148.88;83.31;74956.69;4998257;28;20022;-78
2023/01/08 11:21:29;;;;;;;5.78;1.77;;;;;;;-148.88;82.23;74918.13;4998256;28;20545;-78